Back to Top

Language: 

My Weather Underground Personal Weather Station Historical Data with Graphs...

Delerius Weather Station Historical Data
Daily Summary for April 29, 2017 Units:  English    Metric   Both
« Previous Day
Next Day »
Daily Weekly Monthly Yearly Custom
  High: Low: Average:
Temperature: 54.3 °F 45.0 °F 50 °F
Dew Point: 44.1 °F 37.5 °F 41.6 °F
Humidity: 91 % 54 % 74 %
Wind Speed: 10.0 mph 0.0 mph 3.3 mph
Wind Gust: 19.0 mph - -
Wind:- - South
Pressure: 29.99 in 29.84 in -
Precipitation: 0.00 in    
Historical Graphs
 
 
Tabular Data for April 29, 2017
Time Temperature Dew Point Pressure Wind Wind Speed Wind Gust Humidity Rainfall Rate (Hourly) solar Conditions
00:03 48.0 °F 43.4 °F 29.98 in Calm   3.0 mph 84 % 0.00 in 0 W/m2
00:08 48.0 °F 43.4 °F 29.98 in Calm   2.0 mph 84 % 0.00 in 0 W/m2
00:13 48.0 °F 43.4 °F 29.99 in Calm   2.0 mph 84 % 0.00 in 0 W/m2
00:18 48.0 °F 43.4 °F 29.99 in Calm   3.0 mph 84 % 0.00 in 0 W/m2
00:23 48.0 °F 43.4 °F 29.98 in WNW 1.0 mph 5.0 mph 84 % 0.00 in 0 W/m2
00:28 48.0 °F 43.4 °F 29.98 in WNW 1.0 mph 5.0 mph 84 % 0.00 in 0 W/m2
00:33 47.8 °F 43.2 °F 29.98 in Calm   2.0 mph 84 % 0.00 in 0 W/m2
00:38 47.8 °F 43.2 °F 29.98 in WNW 1.0 mph 3.0 mph 84 % 0.00 in 0 W/m2
00:43 47.8 °F 43.5 °F 29.98 in Calm   3.0 mph 85 % 0.00 in 0 W/m2
00:44 47.8 °F 43.5 °F 29.98 in Calm   3.0 mph 85 % 0.00 in 0 W/m2
00:49 47.8 °F 43.5 °F 29.98 in Calm   2.0 mph 85 % 0.00 in 0 W/m2
00:54 47.7 °F 43.4 °F 29.98 in Calm   2.0 mph 85 % 0.00 in 0 W/m2
00:59 47.7 °F 43.4 °F 29.98 in Calm   2.0 mph 85 % 0.00 in 0 W/m2
01:04 47.7 °F 43.4 °F 29.98 in Calm   1.0 mph 85 % 0.00 in 0 W/m2
01:09 47.5 °F 43.2 °F 29.98 in Calm   1.0 mph 85 % 0.00 in 0 W/m2
01:14 47.5 °F 43.2 °F 29.98 in Calm   2.0 mph 85 % 0.00 in 0 W/m2
01:19 47.5 °F 43.2 °F 29.98 in Calm   4.0 mph 85 % 0.00 in 0 W/m2
01:24 47.3 °F 43.0 °F 29.97 in WNW 1.0 mph 5.0 mph 85 % 0.00 in 0 W/m2
01:29 47.1 °F 42.8 °F 29.97 in WNW 3.0 mph 7.0 mph 85 % 0.00 in 0 W/m2
01:34 47.1 °F 42.8 °F 29.97 in NW 3.0 mph 7.0 mph 85 % 0.00 in 0 W/m2
01:39 47.1 °F 42.5 °F 29.97 in NW 3.0 mph 7.0 mph 84 % 0.00 in 0 W/m2
01:44 47.1 °F 42.5 °F 29.97 in NW 3.0 mph 7.0 mph 84 % 0.00 in 0 W/m2
01:49 47.1 °F 42.5 °F 29.97 in NW 2.0 mph 6.0 mph 84 % 0.00 in 0 W/m2
01:54 47.1 °F 42.5 °F 29.97 in NW 1.0 mph 5.0 mph 84 % 0.00 in 0 W/m2
01:59 47.1 °F 42.5 °F 29.97 in Calm   2.0 mph 84 % 0.00 in 0 W/m2
02:04 47.1 °F 42.5 °F 29.97 in Calm   4.0 mph 84 % 0.00 in 0 W/m2
02:09 47.1 °F 42.5 °F 29.97 in NW 1.0 mph 4.0 mph 84 % 0.00 in 0 W/m2
02:14 47.1 °F 42.5 °F 29.97 in Calm   3.0 mph 84 % 0.00 in 0 W/m2
02:19 46.9 °F 42.7 °F 29.97 in Calm   1.0 mph 85 % 0.00 in 0 W/m2
02:24 46.9 °F 42.7 °F 29.97 in Calm   2.0 mph 85 % 0.00 in 0 W/m2
02:29 46.9 °F 42.7 °F 29.96 in Calm   2.0 mph 85 % 0.00 in 0 W/m2
02:34 46.9 °F 42.7 °F 29.97 in Calm   1.0 mph 85 % 0.00 in 0 W/m2
02:39 46.9 °F 42.7 °F 29.96 in Calm     85 % 0.00 in 0 W/m2
02:44 46.9 °F 42.7 °F 29.96 in Calm   2.0 mph 85 % 0.00 in 0 W/m2
02:49 46.8 °F 42.5 °F 29.97 in Calm   2.0 mph 85 % 0.00 in 0 W/m2
02:54 46.8 °F 42.8 °F 29.96 in Calm   1.0 mph 86 % 0.00 in 0 W/m2
02:59 46.8 °F 42.8 °F 29.97 in Calm   2.0 mph 86 % 0.00 in 0 W/m2
03:04 46.8 °F 42.8 °F 29.97 in Calm   2.0 mph 86 % 0.00 in 0 W/m2
03:09 46.6 °F 42.6 °F 29.97 in Calm   1.0 mph 86 % 0.00 in 0 W/m2
03:14 46.6 °F 42.9 °F 29.97 in Calm   2.0 mph 87 % 0.00 in 0 W/m2
03:19 46.6 °F 42.9 °F 29.96 in Calm   3.0 mph 87 % 0.00 in 0 W/m2
03:24 46.2 °F 42.6 °F 29.96 in Calm   3.0 mph 87 % 0.00 in 0 W/m2
03:29 46.2 °F 42.9 °F 29.96 in Calm   3.0 mph 88 % 0.00 in 0 W/m2
03:34 46.2 °F 42.9 °F 29.96 in Calm   1.0 mph 88 % 0.00 in 0 W/m2
03:39 46.2 °F 42.9 °F 29.96 in Calm     88 % 0.00 in 0 W/m2
03:44 46.2 °F 42.9 °F 29.96 in Calm     88 % 0.00 in 0 W/m2
03:45 46.2 °F 42.9 °F 29.96 in Calm     88 % 0.00 in 0 W/m2
03:50 46.2 °F 42.9 °F 29.96 in Calm     88 % 0.00 in 0 W/m2
03:55 46.0 °F 42.7 °F 29.96 in Calm     88 % 0.00 in 0 W/m2
04:00 46.0 °F 42.7 °F 29.96 in Calm     88 % 0.00 in 0 W/m2
04:05 46.0 °F 42.7 °F 29.96 in Calm     88 % 0.00 in 0 W/m2
04:10 46.0 °F 42.7 °F 29.95 in Calm     88 % 0.00 in 0 W/m2
04:14 45.9 °F 42.5 °F 29.95 in Calm     88 % 0.00 in 0 W/m2
04:19 45.9 °F 42.5 °F 29.95 in Calm     88 % 0.00 in 0 W/m2
04:24 45.7 °F 42.3 °F 29.96 in Calm     88 % 0.00 in 0 W/m2
04:29 45.7 °F 42.6 °F 29.96 in Calm     89 % 0.00 in 0 W/m2
04:34 45.7 °F 42.6 °F 29.95 in Calm     89 % 0.00 in 0 W/m2
04:39 45.7 °F 42.3 °F 29.95 in Calm     88 % 0.00 in 0 W/m2
04:44 45.7 °F 42.3 °F 29.95 in Calm     88 % 0.00 in 0 W/m2
04:49 45.7 °F 42.6 °F 29.95 in Calm     89 % 0.00 in 0 W/m2
04:54 45.7 °F 42.6 °F 29.95 in Calm     89 % 0.00 in 0 W/m2
05:00 45.7 °F 42.6 °F 29.95 in Calm     89 % 0.00 in 0 W/m2
05:05 45.7 °F 42.6 °F 29.95 in Calm     89 % 0.00 in 0 W/m2
05:10 45.7 °F 42.6 °F 29.95 in Calm     89 % 0.00 in 0 W/m2
05:15 45.5 °F 42.4 °F 29.95 in Calm     89 % 0.00 in 0 W/m2
05:20 45.5 °F 42.4 °F 29.95 in Calm   2.0 mph 89 % 0.00 in 0 W/m2
05:25 45.3 °F 42.3 °F 29.94 in Calm   3.0 mph 89 % 0.00 in 0 W/m2
05:30 45.3 °F 42.3 °F 29.94 in Calm   3.0 mph 89 % 0.00 in 0 W/m2
05:35 45.3 °F 42.3 °F 29.94 in Calm     89 % 0.00 in 0 W/m2
05:40 45.1 °F 42.1 °F 29.94 in Calm     89 % 0.00 in 0 W/m2
05:45 45.1 °F 42.4 °F 29.95 in Calm   2.0 mph 90 % 0.00 in 0 W/m2
05:50 45.1 °F 42.4 °F 29.95 in Calm   2.0 mph 90 % 0.00 in 5 W/m2
05:55 45.1 °F 42.4 °F 29.94 in Calm   2.0 mph 90 % 0.00 in 5 W/m2
06:00 45.0 °F 42.2 °F 29.95 in Calm     90 % 0.00 in 7 W/m2
06:05 45.0 °F 42.2 °F 29.95 in Calm     90 % 0.00 in 9 W/m2
06:10 45.0 °F 42.5 °F 29.95 in Calm     91 % 0.00 in 11 W/m2
06:15 45.0 °F 42.5 °F 29.95 in Calm     91 % 0.00 in 12 W/m2
06:20 45.0 °F 42.5 °F 29.95 in Calm     91 % 0.00 in 19 W/m2
06:25 45.0 °F 42.5 °F 29.95 in Calm     91 % 0.00 in 21 W/m2
06:30 45.0 °F 42.5 °F 29.95 in Calm     91 % 0.00 in 25 W/m2
06:35 45.1 °F 42.7 °F 29.95 in Calm     91 % 0.00 in 33 W/m2
06:40 45.1 °F 42.7 °F 29.95 in Calm     91 % 0.00 in 42 W/m2
06:45 45.3 °F 42.8 °F 29.95 in Calm     91 % 0.00 in 47 W/m2
06:50 45.3 °F 42.8 °F 29.95 in Calm     91 % 0.00 in 46 W/m2
06:55 45.3 °F 42.8 °F 29.95 in Calm     91 % 0.00 in 46 W/m2
07:00 45.5 °F 43.0 °F 29.95 in Calm     91 % 0.00 in 49 W/m2
07:05 45.5 °F 43.0 °F 29.95 in Calm     91 % 0.00 in 53 W/m2
07:10 45.5 °F 43.0 °F 29.95 in Calm     91 % 0.00 in 58 W/m2
07:15 45.7 °F 43.2 °F 29.95 in Calm     91 % 0.00 in 51 W/m2
07:20 45.7 °F 43.2 °F 29.95 in Calm     91 % 0.00 in 51 W/m2
07:25 45.9 °F 43.4 °F 29.95 in Calm     91 % 0.00 in 53 W/m2
07:30 45.9 °F 43.1 °F 29.95 in Calm     90 % 0.00 in 67 W/m2
07:35 46.0 °F 43.3 °F 29.95 in Calm     90 % 0.00 in 58 W/m2
07:40 46.0 °F 43.0 °F 29.95 in Calm     89 % 0.00 in 86 W/m2
07:45 46.2 °F 43.2 °F 29.95 in Calm     89 % 0.00 in 90 W/m2
07:50 46.4 °F 43.3 °F 29.95 in Calm     89 % 0.00 in 100 W/m2
07:56 46.6 °F 43.2 °F 29.95 in Calm     88 % 0.00 in 90 W/m2
08:01 46.8 °F 43.4 °F 29.95 in Calm     88 % 0.00 in 83 W/m2
08:06 46.9 °F 43.0 °F 29.95 in Calm     86 % 0.00 in 67 W/m2
08:11 46.9 °F 42.7 °F 29.95 in Calm     85 % 0.00 in 54 W/m2
08:16 47.1 °F 42.5 °F 29.95 in Calm     84 % 0.00 in 51 W/m2
08:21 47.3 °F 42.4 °F 29.95 in Calm     83 % 0.00 in 46 W/m2
08:26 47.5 °F 42.6 °F 29.95 in Calm     83 % 0.00 in 53 W/m2
08:31 47.5 °F 42.3 °F 29.95 in Calm     82 % 0.00 in 60 W/m2
08:36 47.7 °F 42.4 °F 29.95 in Calm   2.0 mph 82 % 0.00 in 72 W/m2
08:41 47.5 °F 41.9 °F 29.95 in Calm   2.0 mph 81 % 0.00 in 77 W/m2
08:46 47.7 °F 42.1 °F 29.95 in Calm   2.0 mph 81 % 0.00 in 79 W/m2
08:51 47.7 °F 42.1 °F 29.95 in Calm   2.0 mph 81 % 0.00 in 74 W/m2
08:56 47.7 °F 42.1 °F 29.95 in Calm   2.0 mph 81 % 0.00 in 109 W/m2
09:01 47.8 °F 42.3 °F 29.95 in Calm   2.0 mph 81 % 0.00 in 127 W/m2
09:06 48.0 °F 42.5 °F 29.95 in Calm     81 % 0.00 in 206 W/m2
09:11 48.4 °F 42.8 °F 29.95 in Calm     81 % 0.00 in 283 W/m2
09:16 48.7 °F 42.5 °F 29.95 in Calm   2.0 mph 79 % 0.00 in 396 W/m2
09:21 49.1 °F 42.9 °F 29.95 in Calm   2.0 mph 79 % 0.00 in 383 W/m2
09:26 49.6 °F 43.1 °F 29.95 in Calm   4.0 mph 78 % 0.00 in 378 W/m2
09:31 50.2 °F 43.2 °F 29.95 in NW 1.0 mph 4.0 mph 77 % 0.00 in 353 W/m2
09:36 50.5 °F 43.3 °F 29.95 in NW 1.0 mph 3.0 mph 76 % 0.00 in 677 W/m2
09:41 51.1 °F 43.4 °F 29.94 in Calm   4.0 mph 75 % 0.00 in 323 W/m2
09:46 51.6 °F 43.6 °F 29.94 in Calm   4.0 mph 74 % 0.00 in 729 W/m2
09:51 52.3 °F 43.9 °F 29.94 in NW 1.0 mph 5.0 mph 73 % 0.00 in 510 W/m2
09:56 52.5 °F 43.8 °F 29.94 in NW 1.0 mph 5.0 mph 72 % 0.00 in 737 W/m2
10:01 52.9 °F 43.7 °F 29.94 in WNW 1.0 mph 4.0 mph 71 % 0.00 in 262 W/m2
10:06 52.9 °F 44.1 °F 29.94 in WNW 1.0 mph 5.0 mph 72 % 0.00 in 327 W/m2
10:11 53.2 °F 43.7 °F 29.94 in NW 1.0 mph 5.0 mph 70 % 0.00 in 239 W/m2
10:16 53.2 °F 43.7 °F 29.94 in NW 1.0 mph 5.0 mph 70 % 0.00 in 167 W/m2
10:21 53.1 °F 43.9 °F 29.94 in West 2.0 mph 6.0 mph 71 % 0.00 in 109 W/m2
10:26 52.5 °F 43.8 °F 29.94 in West 5.0 mph 9.0 mph 72 % 0.00 in 90 W/m2
10:31 52.0 °F 43.6 °F 29.94 in West 6.0 mph 10.0 mph 73 % 0.00 in 65 W/m2
10:36 51.4 °F 43.8 °F 29.94 in West 5.0 mph 10.0 mph 75 % 0.00 in 56 W/m2
10:41 51.3 °F 43.6 °F 29.94 in WNW 3.0 mph 6.0 mph 75 % 0.00 in 60 W/m2
10:47 51.1 °F 43.4 °F 29.94 in West 4.0 mph 7.0 mph 75 % 0.00 in 67 W/m2
10:52 50.9 °F 43.6 °F 29.94 in WNW 4.0 mph 7.0 mph 76 % 0.00 in 69 W/m2
10:57 50.5 °F 43.6 °F 29.94 in West 5.0 mph 8.0 mph 77 % 0.00 in 79 W/m2
11:02 50.4 °F 43.4 °F 29.94 in West 5.0 mph 8.0 mph 77 % 0.00 in 93 W/m2
11:07 50.2 °F 43.2 °F 29.94 in West 6.0 mph 10.0 mph 77 % 0.00 in 104 W/m2
11:12 50.0 °F 43.1 °F 29.94 in West 6.0 mph 10.0 mph 77 % 0.00 in 95 W/m2
11:17 49.8 °F 42.9 °F 29.94 in West 5.0 mph 9.0 mph 77 % 0.00 in 90 W/m2
11:22 49.8 °F 42.9 °F 29.94 in WNW 5.0 mph 8.0 mph 77 % 0.00 in 95 W/m2
11:27 49.6 °F 42.4 °F 29.94 in WNW 4.0 mph 8.0 mph 76 % 0.00 in 104 W/m2
11:32 49.6 °F 42.4 °F 29.93 in West 4.0 mph 8.0 mph 76 % 0.00 in 121 W/m2
11:37 49.6 °F 42.0 °F 29.93 in West 4.0 mph 7.0 mph 75 % 0.00 in 146 W/m2
11:42 49.6 °F 41.7 °F 29.93 in WNW 3.0 mph 7.0 mph 74 % 0.00 in 181 W/m2
11:47 49.8 °F 41.5 °F 29.93 in NW 3.0 mph 6.0 mph 73 % 0.00 in 202 W/m2
11:52 50.0 °F 41.3 °F 29.93 in WNW 2.0 mph 5.0 mph 72 % 0.00 in 209 W/m2
11:57 50.2 °F 41.1 °F 29.93 in NW 1.0 mph 5.0 mph 71 % 0.00 in 216 W/m2
12:02 50.5 °F 41.1 °F 29.93 in NW 1.0 mph 4.0 mph 70 % 0.00 in 236 W/m2
12:07 50.7 °F 40.9 °F 29.93 in NW 1.0 mph 5.0 mph 69 % 0.00 in 255 W/m2
12:12 50.7 °F 40.5 °F 29.93 in NW 1.0 mph 5.0 mph 68 % 0.00 in 287 W/m2
12:17 51.1 °F 41.3 °F 29.93 in Calm   3.0 mph 69 % 0.00 in 352 W/m2
12:22 51.3 °F 41.4 °F 29.93 in Calm   2.0 mph 69 % 0.00 in 441 W/m2
12:27 51.6 °F 41.4 °F 29.93 in Calm   4.0 mph 68 % 0.00 in 381 W/m2
12:32 52.2 °F 41.5 °F 29.93 in Calm   4.0 mph 67 % 0.00 in 338 W/m2
12:37 52.3 °F 41.3 °F 29.92 in WNW 1.0 mph 4.0 mph 66 % 0.00 in 288 W/m2
12:42 52.7 °F 41.7 °F 29.92 in West 1.0 mph 4.0 mph 66 % 0.00 in 234 W/m2
12:47 52.9 °F 41.8 °F 29.92 in SE 1.0 mph 6.0 mph 66 % 0.00 in 193 W/m2
12:52 52.9 °F 41.4 °F 29.92 in SE 2.0 mph 6.0 mph 65 % 0.00 in 237 W/m2
12:57 52.9 °F 41.4 °F 29.92 in SSE 2.0 mph 5.0 mph 65 % 0.00 in 234 W/m2
13:02 52.9 °F 41.4 °F 29.92 in SE 3.0 mph 10.0 mph 65 % 0.00 in 251 W/m2
13:07 52.9 °F 41.0 °F 29.92 in SE 5.0 mph 10.0 mph 64 % 0.00 in 244 W/m2
13:12 53.1 °F 41.2 °F 29.92 in SE 6.0 mph 12.0 mph 64 % 0.00 in 309 W/m2
13:17 53.2 °F 41.0 °F 29.92 in SE 6.0 mph 12.0 mph 63 % 0.00 in 366 W/m2
13:22 53.6 °F 40.9 °F 29.91 in SSE 5.0 mph 11.0 mph 62 % 0.00 in 353 W/m2
13:27 53.8 °F 40.2 °F 29.91 in SSE 7.0 mph 13.0 mph 60 % 0.00 in 392 W/m2
13:32 53.8 °F 39.8 °F 29.92 in South 8.0 mph 16.0 mph 59 % 0.00 in 392 W/m2
13:37 53.8 °F 39.8 °F 29.92 in SSW 9.0 mph 16.0 mph 59 % 0.00 in 325 W/m2
13:43 53.6 °F 39.2 °F 29.92 in South 9.0 mph 15.0 mph 58 % 0.00 in 283 W/m2
13:46 53.6 °F 39.6 °F 29.92 in South 9.0 mph 15.0 mph 59 % 0.00 in 262 W/m2
13:51 53.6 °F 40.0 °F 29.92 in South 8.0 mph 15.0 mph 60 % 0.00 in 253 W/m2
13:56 53.6 °F 39.6 °F 29.92 in South 8.0 mph 15.0 mph 59 % 0.00 in 260 W/m2
14:01 53.6 °F 39.6 °F 29.92 in SSE 7.0 mph 12.0 mph 59 % 0.00 in 283 W/m2
14:06 53.6 °F 39.6 °F 29.92 in SSE 7.0 mph 12.0 mph 59 % 0.00 in 260 W/m2
14:11 53.6 °F 38.7 °F 29.91 in SE 7.0 mph 11.0 mph 57 % 0.00 in 276 W/m2
14:16 53.8 °F 39.3 °F 29.91 in SE 6.0 mph 10.0 mph 58 % 0.00 in 297 W/m2
14:21 53.8 °F 38.9 °F 29.91 in SSE 7.0 mph 15.0 mph 57 % 0.00 in 332 W/m2
14:26 54.0 °F 38.6 °F 29.91 in South 8.0 mph 15.0 mph 56 % 0.00 in 295 W/m2
14:31 54.1 °F 38.3 °F 29.91 in South 8.0 mph 15.0 mph 55 % 0.00 in 283 W/m2
14:36 54.0 °F 38.6 °F 29.91 in South 9.0 mph 18.0 mph 56 % 0.00 in 309 W/m2
14:41 54.0 °F 38.6 °F 29.91 in South 10.0 mph 18.0 mph 56 % 0.00 in 346 W/m2
14:46 54.0 °F 38.6 °F 29.91 in SSW 10.0 mph 15.0 mph 56 % 0.00 in 302 W/m2
14:51 53.8 °F 38.4 °F 29.91 in SSW 10.0 mph 19.0 mph 56 % 0.00 in 297 W/m2
14:56 53.6 °F 38.3 °F 29.91 in South 10.0 mph 19.0 mph 56 % 0.00 in 279 W/m2
15:01 53.4 °F 38.6 °F 29.91 in South 9.0 mph 14.0 mph 57 % 0.00 in 357 W/m2
15:06 53.6 °F 38.7 °F 29.91 in South 10.0 mph 15.0 mph 57 % 0.00 in 306 W/m2
15:11 53.6 °F 37.8 °F 29.91 in SSW 10.0 mph 15.0 mph 55 % 0.00 in 290 W/m2
15:16 53.4 °F 38.6 °F 29.91 in SSW 8.0 mph 15.0 mph 57 % 0.00 in 265 W/m2
15:21 53.6 °F 38.3 °F 29.90 in SSW 8.0 mph 12.0 mph 56 % 0.00 in 271 W/m2
15:26 53.8 °F 38.4 °F 29.90 in SW 8.0 mph 13.0 mph 56 % 0.00 in 241 W/m2
15:31 53.4 °F 37.6 °F 29.90 in SSW 8.0 mph 13.0 mph 55 % 0.00 in 229 W/m2
15:36 53.4 °F 37.6 °F 29.90 in SSW 8.0 mph 13.0 mph 55 % 0.00 in 234 W/m2
15:41 53.2 °F 37.5 °F 29.90 in SW 8.0 mph 18.0 mph 55 % 0.00 in 225 W/m2
15:46 53.4 °F 38.1 °F 29.90 in SSW 8.0 mph 18.0 mph 56 % 0.00 in 192 W/m2
15:51 53.4 °F 38.1 °F 29.90 in South 7.0 mph 18.0 mph 56 % 0.00 in 209 W/m2
15:56 53.4 °F 38.1 °F 29.90 in South 9.0 mph 18.0 mph 56 % 0.00 in 192 W/m2
16:01 53.2 °F 37.9 °F 29.90 in South 9.0 mph 18.0 mph 56 % 0.00 in 197 W/m2
16:06 53.4 °F 38.6 °F 29.90 in South 7.0 mph 14.0 mph 57 % 0.00 in 214 W/m2
16:11 53.6 °F 38.7 °F 29.90 in South 7.0 mph 14.0 mph 57 % 0.00 in 221 W/m2
16:16 53.8 °F 38.0 °F 29.89 in South 7.0 mph 15.0 mph 55 % 0.00 in 216 W/m2
16:21 53.8 °F 38.4 °F 29.89 in SSW 8.0 mph 15.0 mph 56 % 0.00 in 276 W/m2
16:26 54.0 °F 38.1 °F 29.89 in SSW 6.0 mph 11.0 mph 55 % 0.00 in 251 W/m2
16:31 54.0 °F 38.1 °F 29.89 in South 6.0 mph 12.0 mph 55 % 0.00 in 248 W/m2
16:36 54.0 °F 38.6 °F 29.89 in South 6.0 mph 12.0 mph 56 % 0.00 in 236 W/m2
16:41 54.1 °F 38.3 °F 29.89 in South 6.0 mph 14.0 mph 55 % 0.00 in 209 W/m2
16:46 54.1 °F 38.3 °F 29.89 in South 9.0 mph 18.0 mph 55 % 0.00 in 183 W/m2
16:51 54.1 °F 37.8 °F 29.89 in South 10.0 mph 18.0 mph 54 % 0.00 in 156 W/m2
16:56 54.1 °F 38.3 °F 29.88 in South 8.0 mph 16.0 mph 55 % 0.00 in 137 W/m2
17:01 54.1 °F 38.3 °F 29.88 in South 6.0 mph 13.0 mph 55 % 0.00 in 134 W/m2
17:06 54.1 °F 38.3 °F 29.88 in South 6.0 mph 14.0 mph 55 % 0.00 in 132 W/m2
17:12 54.3 °F 38.5 °F 29.88 in SSE 8.0 mph 14.0 mph 55 % 0.00 in 127 W/m2
17:17 54.3 °F 38.5 °F 29.88 in SE 8.0 mph 13.0 mph 55 % 0.00 in 134 W/m2
17:22 54.3 °F 38.5 °F 29.88 in SSE 7.0 mph 12.0 mph 55 % 0.00 in 123 W/m2
17:27 54.3 °F 38.9 °F 29.88 in SSE 6.0 mph 11.0 mph 56 % 0.00 in 125 W/m2
17:32 54.3 °F 38.9 °F 29.88 in South 6.0 mph 13.0 mph 56 % 0.00 in 120 W/m2
17:37 54.3 °F 38.9 °F 29.88 in SSE 6.0 mph 13.0 mph 56 % 0.00 in 111 W/m2
17:42 54.1 °F 38.8 °F 29.88 in SSE 6.0 mph 14.0 mph 56 % 0.00 in 91 W/m2
17:47 54.1 °F 39.2 °F 29.87 in SE 7.0 mph 14.0 mph 57 % 0.00 in 105 W/m2
17:52 54.1 °F 39.2 °F 29.87 in SE 7.0 mph 12.0 mph 57 % 0.00 in 93 W/m2
17:57 54.1 °F 39.2 °F 29.87 in SSE 7.0 mph 11.0 mph 57 % 0.00 in 77 W/m2
18:02 54.0 °F 39.1 °F 29.87 in SSE 8.0 mph 14.0 mph 57 % 0.00 in 76 W/m2
18:07 54.0 °F 39.5 °F 29.87 in SSE 9.0 mph 14.0 mph 58 % 0.00 in 76 W/m2
18:12 54.0 °F 39.5 °F 29.87 in SSE 8.0 mph 14.0 mph 58 % 0.00 in 70 W/m2
18:17 54.0 °F 39.5 °F 29.87 in SSE 7.0 mph 12.0 mph 58 % 0.00 in 69 W/m2
18:22 54.0 °F 38.6 °F 29.87 in SE 8.0 mph 16.0 mph 56 % 0.00 in 76 W/m2
18:27 54.0 °F 38.6 °F 29.86 in SE 9.0 mph 16.0 mph 56 % 0.00 in 74 W/m2
18:32 54.0 °F 38.6 °F 29.86 in SSE 8.0 mph 13.0 mph 56 % 0.00 in 58 W/m2
18:37 54.0 °F 38.6 °F 29.86 in SSE 7.0 mph 13.0 mph 56 % 0.00 in 40 W/m2
18:42 54.0 °F 38.6 °F 29.86 in SSE 6.0 mph 13.0 mph 56 % 0.00 in 33 W/m2
18:47 53.8 °F 39.3 °F 29.86 in SSE 6.0 mph 13.0 mph 58 % 0.00 in 33 W/m2
18:52 53.8 °F 39.8 °F 29.86 in SE 7.0 mph 12.0 mph 59 % 0.00 in 25 W/m2
18:57 53.6 °F 40.0 °F 29.86 in SE 7.0 mph 12.0 mph 60 % 0.00 in 26 W/m2
19:02 53.4 °F 40.3 °F 29.86 in SE 7.0 mph 12.0 mph 61 % 0.00 in 37 W/m2
19:07 53.4 °F 40.7 °F 29.86 in SE 6.0 mph 11.0 mph 62 % 0.00 in 33 W/m2
19:12 53.4 °F 40.7 °F 29.86 in SE 6.0 mph 10.0 mph 62 % 0.00 in 33 W/m2
19:17 53.2 °F 40.5 °F 29.86 in SE 6.0 mph 10.0 mph 62 % 0.00 in 37 W/m2
19:22 53.2 °F 40.5 °F 29.86 in SE 5.0 mph 10.0 mph 62 % 0.00 in 37 W/m2
19:27 53.2 °F 40.5 °F 29.86 in SE 5.0 mph 8.0 mph 62 % 0.00 in 33 W/m2
19:32 53.2 °F 40.1 °F 29.86 in SE 5.0 mph 9.0 mph 61 % 0.00 in 26 W/m2
19:37 53.2 °F 40.1 °F 29.86 in SE 5.0 mph 9.0 mph 61 % 0.00 in 23 W/m2
19:42 53.2 °F 40.1 °F 29.86 in SE 5.0 mph 9.0 mph 61 % 0.00 in 18 W/m2
19:47 53.2 °F 40.1 °F 29.86 in SE 5.0 mph 8.0 mph 61 % 0.00 in 19 W/m2
19:52 53.2 °F 40.1 °F 29.86 in SE 5.0 mph 9.0 mph 61 % 0.00 in 16 W/m2
19:57 53.1 °F 40.4 °F 29.86 in SE 5.0 mph 9.0 mph 62 % 0.00 in 12 W/m2
20:02 53.1 °F 40.4 °F 29.85 in SE 4.0 mph 8.0 mph 62 % 0.00 in 11 W/m2
20:08 53.1 °F 40.0 °F 29.86 in SE 4.0 mph 8.0 mph 61 % 0.00 in 9 W/m2
20:12 52.9 °F 40.2 °F 29.85 in SE 4.0 mph 8.0 mph 62 % 0.00 in 5 W/m2
20:18 52.9 °F 40.2 °F 29.85 in SE 4.0 mph 9.0 mph 62 % 0.00 in 0 W/m2
20:23 52.7 °F 40.0 °F 29.85 in ESE 5.0 mph 9.0 mph 62 % 0.00 in 0 W/m2
20:26 52.7 °F 40.0 °F 29.85 in ESE 5.0 mph 8.0 mph 62 % 0.00 in 0 W/m2
20:31 52.5 °F 40.3 °F 29.85 in ESE 5.0 mph 8.0 mph 63 % 0.00 in 0 W/m2
20:36 52.5 °F 40.3 °F 29.85 in ESE 5.0 mph 8.0 mph 63 % 0.00 in 0 W/m2
20:41 52.5 °F 40.3 °F 29.85 in ESE 5.0 mph 10.0 mph 63 % 0.00 in 0 W/m2
20:46 52.5 °F 40.7 °F 29.85 in ESE 5.0 mph 10.0 mph 64 % 0.00 in 0 W/m2
20:51 52.3 °F 40.5 °F 29.85 in ESE 5.0 mph 9.0 mph 64 % 0.00 in 0 W/m2
20:56 52.3 °F 40.9 °F 29.85 in ESE 5.0 mph 9.0 mph 65 % 0.00 in 0 W/m2
21:01 52.3 °F 40.9 °F 29.85 in ESE 5.0 mph 9.0 mph 65 % 0.00 in 0 W/m2
21:06 52.2 °F 40.7 °F 29.85 in ESE 5.0 mph 9.0 mph 65 % 0.00 in 0 W/m2
21:11 52.2 °F 40.7 °F 29.86 in ESE 5.0 mph 9.0 mph 65 % 0.00 in 0 W/m2
21:16 52.2 °F 41.1 °F 29.85 in ESE 3.0 mph 7.0 mph 66 % 0.00 in 0 W/m2
21:21 52.0 °F 41.0 °F 29.85 in ESE 4.0 mph 9.0 mph 66 % 0.00 in 0 W/m2
21:26 52.0 °F 41.4 °F 29.85 in ESE 6.0 mph 12.0 mph 67 % 0.00 in 0 W/m2
21:31 51.8 °F 41.9 °F 29.85 in ESE 6.0 mph 12.0 mph 69 % 0.00 in 0 W/m2
21:36 51.6 °F 42.2 °F 29.85 in ESE 7.0 mph 11.0 mph 70 % 0.00 in 0 W/m2
21:41 51.4 °F 42.3 °F 29.85 in ESE 7.0 mph 11.0 mph 71 % 0.00 in 0 W/m2
21:46 51.3 °F 42.5 °F 29.84 in ESE 6.0 mph 10.0 mph 72 % 0.00 in 0 W/m2
21:51 51.1 °F 42.7 °F 29.84 in ESE 6.0 mph 12.0 mph 73 % 0.00 in 0 W/m2
21:56 50.7 °F 42.4 °F 29.84 in ESE 5.0 mph 12.0 mph 73 % 0.00 in 0 W/m2
22:01 50.5 °F 42.6 °F 29.84 in ESE 3.0 mph 8.0 mph 74 % 0.00 in 0 W/m2
22:06 50.4 °F 42.7 °F 29.85 in ESE 4.0 mph 8.0 mph 75 % 0.00 in 0 W/m2
22:11 50.0 °F 43.1 °F 29.85 in ESE 5.0 mph 10.0 mph 77 % 0.00 in 0 W/m2
22:13 50.0 °F 43.1 °F 29.85 in ESE 6.0 mph 12.0 mph 77 % 0.00 in 0 W/m2
22:18 49.8 °F 43.2 °F 29.85 in ESE 6.0 mph 12.0 mph 78 % 0.00 in 0 W/m2
22:23 49.6 °F 43.4 °F 29.85 in ESE 5.0 mph 10.0 mph 79 % 0.00 in 0 W/m2
22:28 49.5 °F 43.2 °F 29.85 in ESE 5.0 mph 10.0 mph 79 % 0.00 in 0 W/m2
22:33 49.5 °F 43.5 °F 29.85 in ESE 5.0 mph 8.0 mph 80 % 0.00 in 0 W/m2
22:38 49.3 °F 43.7 °F 29.85 in SE 4.0 mph 8.0 mph 81 % 0.00 in 0 W/m2
22:43 49.3 °F 43.7 °F 29.85 in SE 4.0 mph 10.0 mph 81 % 0.00 in 0 W/m2
22:48 49.1 °F 43.8 °F 29.85 in ESE 5.0 mph 10.0 mph 82 % 0.00 in 0 W/m2
22:53 48.9 °F 43.7 °F 29.85 in ESE 4.0 mph 9.0 mph 82 % 0.00 in 0 W/m2
22:58 48.7 °F 43.8 °F 29.84 in ESE 4.0 mph 8.0 mph 83 % 0.00 in 0 W/m2
23:03 48.6 °F 43.6 °F 29.84 in ESE 4.0 mph 8.0 mph 83 % 0.00 in 0 W/m2
23:08 48.4 °F 43.8 °F 29.84 in ESE 4.0 mph 8.0 mph 84 % 0.00 in 0 W/m2
23:13 48.4 °F 43.8 °F 29.84 in ESE 3.0 mph 8.0 mph 84 % 0.00 in 0 W/m2
23:18 48.0 °F 43.4 °F 29.84 in ESE 4.0 mph 8.0 mph 84 % 0.00 in 0 W/m2
23:23 47.8 °F 43.2 °F 29.84 in ESE 4.0 mph 8.0 mph 84 % 0.00 in 0 W/m2
23:26 47.8 °F 43.5 °F 29.84 in ESE 4.0 mph 8.0 mph 85 % 0.00 in 0 W/m2
23:31 47.7 °F 43.4 °F 29.84 in ESE 4.0 mph 8.0 mph 85 % 0.00 in 0 W/m2
23:36 47.7 °F 43.4 °F 29.84 in ESE 4.0 mph 8.0 mph 85 % 0.00 in 0 W/m2
23:41 47.5 °F 43.2 °F 29.84 in ESE 4.0 mph 8.0 mph 85 % 0.00 in 0 W/m2
23:46 47.5 °F 43.2 °F 29.84 in ESE 4.0 mph 9.0 mph 85 % 0.00 in 0 W/m2
23:51 47.3 °F 43.0 °F 29.84 in ESE 6.0 mph 12.0 mph 85 % 0.00 in 0 W/m2
23:56 47.3 °F 43.0 °F 29.84 in ESE 6.0 mph 12.0 mph 85 % 0.00 in 0 W/m2
Delerius-Weather
Compliments of Weather Underground - 2.25 mb

Data updates at regular intervals.